Data for 07/15/2006

Time Sea-Level Adjusted Pressure Absolute Pressure Temperature Relative Humidity Dew Point   
(mb) (inHg) (mb) (inHg) (C) (F) (%) (C) (F)
00:05 1019 30.09 848 25.04 21.9 71.4 34 5.4 41.8
00:10 1019 30.09 848 25.04 22 71.7 35 5.9 42.6
00:15 1019 30.09 848 25.04 21.8 71.2 35 5.8 42.4
00:20 1019 30.09 849 25.07 21.6 70.9 38 6.8 44.3
00:25 1019 30.09 849 25.07 21.2 70.1 39 6.7 44
00:30 1019 30.09 849 25.07 20.8 69.5 35 5.1 41.3
00:35 1019 30.09 849 25.07 21.7 71.1 31 4 39.2
00:40 1019 30.09 849 25.07 21.5 70.6 39 7 44.6
00:45 1019 30.09 849 25.07 20.6 69.1 42 7.5 45.5
00:50 1020 30.12 849 25.07 20.7 69.3 36 5.4 41.8
00:55 1020 30.12 849 25.07 21.1 69.9 34 4.8 40.6
01:00 1020 30.12 849 25.07 21.5 70.8 31 4 39.3
01:05 1020 30.12 849 25.07 22.1 71.8 32 5 41
01:10 1020 30.12 849 25.07 21.8 71.3 33 4.9 40.8
01:15 1020 30.12 849 25.07 21.6 70.9 35 5.6 42
01:20 1020 30.12 849 25.07 20.5 69 38 5.7 42.3
01:25 1020 30.12 849 25.07 20.1 68.3 35 4.5 40.1
01:30 1020 30.12 849 25.07 20.3 68.6 39 6.3 43.3
01:35 1020 30.12 849 25.07 20 67.9 39 5.6 42
01:40 1020 30.12 849 25.07 19.8 67.6 39 5.6 42.1
01:45 1020 30.12 849 25.07 19.7 67.5 39 5.4 41.7
01:50 1020 30.12 849 25.07 19.7 67.4 38 5.2 41.3
01:55 1020 30.12 849 25.07 19.7 67.4 40 5.9 42.6
02:00 1020 30.12 849 25.07 19.4 66.9 42 6.2 43.1
02:05 1020 30.12 849 25.07 18.9 66 42 5.8 42.5
02:10 1020 30.12 849 25.07 18.8 65.8 43 6.1 43
02:15 1020 30.12 850 25.1 18.6 65.4 42 5.5 41.9
02:20 1020 30.12 850 25.1 18.8 65.9 45 6.7 44
02:25 1020 30.12 850 25.1 19 66.1 42 5.8 42.4
02:30 1021 30.15 850 25.1 18.8 65.9 45 6.9 44.5
02:35 1021 30.15 850 25.1 18.8 65.9 40 5.1 41.2
02:40 1021 30.15 850 25.1 19.4 66.8 39 5.3 41.5
02:45 1021 30.15 850 25.1 19.5 67.1 37 4.7 40.5
02:50 1021 30.15 850 25.1 19.7 67.4 38 5 41
02:55 1021 30.15 850 25.1 19.7 67.4 38 5.1 41.1
03:00 1021 30.15 850 25.1 19.5 67.2 38 5 41
03:05 1021 30.15 850 25.1 19.4 67 39 5.3 41.6
03:10 1021 30.15 850 25.1 19.2 66.5 40 5.3 41.5
03:15 1021 30.15 850 25.1 19.2 66.6 38 4.8 40.7
03:20 1021 30.15 850 25.1 19.4 66.9 37 4.5 40.2
03:25 1021 30.15 850 25.1 19.5 67 37 4.7 40.4
03:30 1021 30.15 850 25.1 19.5 67 37 4.7 40.4
03:35 1021 30.15 850 25.1 19.3 66.7 38 4.7 40.5
03:40 1021 30.15 850 25.1 18.9 66.1 39 5 41
03:45 1021 30.15 850 25.1 18.7 65.6 41 5.3 41.5
03:50 1021 30.15 850 25.1 18.4 65 42 5.3 41.6
03:55 1021 30.15 850 25.1 18.4 65.2 41 4.9 40.9
04:00 1021 30.15 850 25.1 18.5 65.2 43 5.9 42.6
04:05 1021 30.15 850 25.1 18.2 64.8 42 5.2 41.3
04:10 1021 30.15 850 25.1 18.1 64.6 42 5.2 41.4
04:15 1021 30.15 850 25.1 18.1 64.6 42 5 41
04:20 1021 30.15 850 25.1 18.2 64.7 42 5.3 41.6
04:25 1021 30.15 850 25.1 17.9 64.2 44 5.7 42.3
04:30 1021 30.15 850 25.1 17.5 63.5 47 6.1 42.9
04:35 1021 30.15 850 25.1 17.1 62.8 46 5.6 42
04:40 1021 30.15 850 25.1 17 62.5 52 7.1 44.7
04:45 1021 30.15 850 25.1 17 62.5 48 5.9 42.6
04:50 1021 30.15 850 25.1 16.4 61.6 49 5.7 42.2
04:55 1021 30.15 850 25.1 16.1 61 54 6.8 44.3
05:00 1021 30.15 850 25.1 15.9 60.6 50 5.7 42.3
05:05 1021 30.15 850 25.1 15.6 60 51 5.4 41.8
05:10 1021 30.15 850 25.1 15.9 60.6 52 6.2 43.1
05:15 1021 30.15 850 25.1 16.3 61.3 47 5 41.1
05:20 1021 30.15 850 25.1 16.8 62.2 45 4.8 40.6
05:25 1021 30.15 850 25.1 17.1 62.7 43 4.6 40.3
05:30 1021 30.15 850 25.1 17.1 62.8 43 4.7 40.4
05:35 1021 30.15 850 25.1 17.3 63.2 42 4.5 40.1
05:40 1021 30.15 851 25.13 17.5 63.4 42 4.5 40.1
05:45 1021 30.15 851 25.13 17.4 63.3 43 4.9 40.7
05:50 1021 30.15 851 25.13 17.3 63.1 43 4.6 40.3
05:55 1022 30.18 851 25.13 17.6 63.6 42 4.5 40.1
06:00 1022 30.18 851 25.13 17.2 62.9 46 5.7 42.2
06:05 1022 30.18 851 25.13 16.9 62.5 44 4.6 40.4
06:10 1022 30.18 851 25.13 17.1 62.8 43 4.4 40
06:15 1022 30.18 851 25.13 17.1 62.9 44 5 41
06:20 1022 30.18 851 25.13 16.8 62.3 45 4.9 40.9
06:25 1022 30.18 851 25.13 16.6 61.8 46 5.1 41.2
06:30 1022 30.18 851 25.13 16.6 61.8 46 4.9 40.8
06:35 1022 30.18 851 25.13 16.6 61.9 46 5 41.1
06:40 1022 30.18 851 25.13 16.5 61.7 47 5.2 41.4
06:45 1022 30.18 851 25.13 16.6 61.8 46 4.9 40.9
06:50 1022 30.18 851 25.13 16.5 61.7 48 5.5 42
06:55 1022 30.18 851 25.13 16.3 61.3 48 5.4 41.7
07:00 1022 30.18 851 25.13 16.4 61.5 47 5.2 41.4
07:05 1022 30.18 851 25.13 16.7 62 47 5.4 41.8
07:10 1022 30.18 851 25.13 16.9 62.4 46 5.4 41.7
07:15 1022 30.18 851 25.13 17.1 62.7 46 5.4 41.8
07:20 1022 30.18 851 25.13 17.3 63.1 45 5.4 41.7
07:25 1022 30.18 851 25.13 17.6 63.6 45 5.8 42.4
07:30 1022 30.18 851 25.13 17.7 63.8 46 6.1 43
07:35 1022 30.18 851 25.13 17.8 64.1 46 6.2 43.1
07:40 1022 30.18 851 25.13 17.9 64.2 46 6.1 43
07:45 1022 30.18 851 25.13 18.2 64.7 45 6.1 42.9
07:50 1022 30.18 851 25.13 18.6 65.4 46 6.8 44.2
07:55 1022 30.18 851 25.13 18.8 65.9 43 6.2 43.1
08:00 1022 30.18 851 25.13 18.9 66 49 8.1 46.6
08:05 1022 30.18 851 25.13 19 66.3 44 6.8 44.2
08:10 1022 30.18 851 25.13 19.1 66.4 45 7 44.5
08:15 1022 30.18 851 25.13 19.5 67 43 6.6 43.8
08:20 1022 30.18 851 25.13 19.7 67.5 44 7.3 45.2
08:25 1022 30.18 851 25.13 20.1 68.1 45 7.9 46.3
08:30 1022 30.18 851 25.13 20.3 68.6 41 6.9 44.5
08:35 1022 30.18 851 25.13 20.7 69.2 43 7.8 46.1
08:40 1022 30.18 851 25.13 21.4 70.5 39 6.9 44.5
08:45 1022 30.18 851 25.13 21.9 71.4 35 6.1 43
08:50 1022 30.18 851 25.13 22.2 71.9 35 6.2 43.2
08:55 1022 30.18 851 25.13 22.7 72.8 34 6.3 43.4
09:00 1022 30.18 851 25.13 23 73.4 35 7 44.6
09:05 1022 30.18 851 25.13 23.6 74.4 35 7.5 45.4
09:10 1022 30.18 851 25.13 24 75.2 34 7.3 45.1
09:15 1022 30.18 851 25.13 23.9 75.1 33 7.1 44.8
09:20 1022 30.18 851 25.13 24.1 75.5 34 7.7 45.9
09:25 1022 30.18 851 25.13 24.6 76.3 34 8 46.5
09:30 1022 30.18 851 25.13 24.1 75.3 34 7.3 45.1
09:35 1022 30.18 851 25.13 24.7 76.5 33 7.4 45.4
09:40 1022 30.18 851 25.13 25.4 77.8 31 7.5 45.4
09:45 1022 30.18 851 25.13 25.7 78.3 30 7.2 44.9
09:50 1022 30.18 851 25.13 26 78.7 31 8 46.4
09:55 1022 30.18 851 25.13 25.1 77.2 33 8 46.5
10:00 1022 30.18 851 25.13 25 77 32 7.2 45
10:05 1022 30.18 851 25.13 24.9 76.7 30 6.4 43.5
10:10 1022 30.18 851 25.13 25.3 77.6 29 6.2 43.1
10:15 1022 30.18 851 25.13 25.9 78.5 28 6.4 43.5
10:20 1022 30.18 851 25.13 25.1 77.2 30 6.6 44
10:25 1022 30.18 851 25.13 25.8 78.4 27 5.7 42.2
10:30 1022 30.18 851 25.13 25.6 78 29 6.3 43.3
10:35 1022 30.18 851 25.13 25.2 77.3 29 6.4 43.5
10:40 1022 30.18 851 25.13 25.8 78.4 29 6.6 43.9
10:45 1022 30.18 851 25.13 25.6 78.1 30 6.9 44.3
10:50 1022 30.18 851 25.13 25.6 78.1 31 7.4 45.3
10:55 1022 30.18 851 25.13 26.6 79.8 29 7.5 45.5
11:00 1021 30.15 851 25.13 27.9 82.2 27 7.2 44.9
11:05 1021 30.15 851 25.13 28.2 82.7 26 7 44.7
11:10 1021 30.15 851 25.13 28.3 83 26 7.5 45.4
11:15 1021 30.15 851 25.13 28.7 83.7 28 8.5 47.4
11:20 1021 30.15 851 25.13 29.1 84.3 27 8.6 47.5
11:25 1021 30.15 850 25.1 28.6 83.5 28 8.5 47.3
11:30 1021 30.15 850 25.1 29.1 84.3 27 8.6 47.5
11:35 1021 30.15 850 25.1 28.8 83.8 26 7.7 45.9
11:40 1021 30.15 850 25.1 29.1 84.3 26 7.8 46
11:45 1021 30.15 850 25.1 28.2 82.7 25 6.8 44.2
11:50 1021 30.15 850 25.1 28.9 84 25 7.5 45.4
11:55 1021 30.15 850 25.1 29.4 85 25 7.7 45.8
12:00 1021 30.15 850 25.1 29.7 85.4 25 8.1 46.6
12:05 1021 30.15 850 25.1 29.6 85.3 25 7.6 45.6
12:10 1021 30.15 850 25.1 30.4 86.8 24 8 46.5
12:15 1021 30.15 850 25.1 31.2 88.1 23 8 46.4
12:20 1020 30.12 850 25.1 31 87.8 25 8.8 47.8
12:25 1020 30.12 850 25.1 30.1 86.1 25 8.3 46.9
12:30 1020 30.12 850 25.1 30.6 87.1 23 7.5 45.4
12:35 1020 30.12 850 25.1 31.5 88.6 22 7.6 45.7
12:40 1020 30.12 849 25.07 31.3 88.3 23 8.1 46.6
12:45 1020 30.12 849 25.07 30.4 86.8 23 7.6 45.6
12:50 1020 30.12 849 25.07 31.3 88.3 22 7.1 44.8
12:55 1020 30.12 849 25.07 31.5 88.7 20 6.4 43.6
13:00 1020 30.12 849 25.07 31.8 89.2 22 7.9 46.2
13:05 1020 30.12 849 25.07 31.1 88 24 8.6 47.4
13:10 1020 30.12 849 25.07 31.1 87.9 22 7.3 45.2
13:15 1020 30.12 849 25.07 30.6 87.1 26 9.2 48.5
13:20 1020 30.12 849 25.07 30.9 87.6 25 8.7 47.6
13:25 1020 30.12 849 25.07 31.2 88.1 23 8.1 46.6
13:30 1020 30.12 849 25.07 31.2 88.1 23 8.1 46.6
13:35 1020 30.12 849 25.07 31.9 89.4 23 8.3 46.9
13:40 1020 30.12 849 25.07 32.4 90.2 20 7.2 45
13:45 1020 30.12 849 25.07 32.5 90.5 20 7.1 44.8
13:50 1020 30.12 849 25.07 32.5 90.6 21 7.5 45.5
13:55 1020 30.12 849 25.07 32.9 91.3 21 8.4 47.2
14:00 1020 30.12 849 25.07 32.8 91 23 9.1 48.3
14:05 1020 30.12 849 25.07 32.6 90.7 24 10 50
14:10 1020 30.12 849 25.07 33.1 91.7 24 10 50.1
14:15 1020 30.12 849 25.07 32.1 89.8 23 8.7 47.6
14:20 1020 30.12 849 25.07 32.4 90.3 22 8.4 47.2
14:25 1019 30.09 849 25.07 32.2 89.9 23 9.1 48.3
14:30 1019 30.09 849 25.07 32.8 91 22 8.7 47.6
14:35 1019 30.09 848 25.04 32.9 91.2 20 7.6 45.6
14:40 1019 30.09 848 25.04 33.2 91.8 20 7.5 45.5
14:45 1019 30.09 848 25.04 33.4 92.1 21 8.2 46.8
14:50 1019 30.09 848 25.04 33.3 91.9 20 8 46.5
14:55 1019 30.09 848 25.04 33.7 92.7 17 6 42.8
15:00 1019 30.09 848 25.04 33.8 92.9 18 6.6 43.9
15:05 1019 30.09 848 25.04 33.7 92.7 18 6.3 43.4
15:10 1019 30.09 848 25.04 33.7 92.6 18 6.3 43.4
15:15 1019 30.09 848 25.04 33.4 92.1 17 5.5 41.9
15:20 1019 30.09 848 25.04 33.4 92 18 6.1 43
15:25 1019 30.09 848 25.04 33.2 91.7 18 6.3 43.3
15:30 1019 30.09 848 25.04 32.8 91 21 7.9 46.2
15:35 1019 30.09 848 25.04 32.1 89.7 22 8.4 47.1
15:40 1019 30.09 848 25.04 31.7 89 23 8.5 47.4
15:45 1019 30.09 848 25.04 31.3 88.3 26 9.6 49.2
15:50 1019 30.09 848 25.04 30.8 87.4 26 9.5 49.1
15:55 1019 30.09 849 25.07 30.5 86.9 23 7.5 45.6
16:00 1019 30.09 848 25.04 30.6 87.1 14 -0.1 31.9
16:05 1019 30.09 848 25.04 31.1 88 13 0.3 32.6
16:10 1019 30.09 848 25.04 31.4 88.4 13 0 32.1
16:15 1020 30.12 849 25.07 31.3 88.3 13 -0.5 31.1
16:20 1020 30.12 849 25.07 31.5 88.6 12 -0.5 31.2
16:25 1019 30.09 849 25.07 31.8 89.2 12 -1.2 29.8
16:30 1019 30.09 848 25.04 31.9 89.3 14 1.1 34
16:35 1019 30.09 848 25.04 31.1 88 14 1.3 34.3
16:40 1019 30.09 848 25.04 30.8 87.4 16 2.2 36
16:45 1019 30.09 848 25.04 30.6 87.1 17 3.4 38.1
16:50 1019 30.09 848 25.04 30.7 87.2 16 2.3 36.2
16:55 1019 30.09 848 25.04 30.7 87.2 16 2.6 36.7
17:00 1019 30.09 848 25.04 30.1 86.2 19 4.4 39.9
17:05 1019 30.09 848 25.04 29.8 85.7 17 2.6 36.6
17:10 1019 30.09 848 25.04 30.2 86.4 14 0.5 32.9
17:15 1019 30.09 848 25.04 31.6 88.9 13 0.2 32.4
17:20 1019 30.09 848 25.04 31.7 89.1 13 0.3 32.5
17:25 1019 30.09 848 25.04 31.8 89.2 13 0.8 33.4
17:30 1019 30.09 848 25.04 31.8 89.2 14 1.6 34.9
17:35 1019 30.09 848 25.04 31.5 88.7 14 1.6 34.9
17:40 1018 30.06 848 25.04 31 87.7 15 1.6 34.9
17:45 1018 30.06 847 25.01 31.1 87.9 14 0.9 33.6
17:50 1018 30.06 847 25.01 31.1 88 14 0.5 32.9
17:55 1018 30.06 847 25.01 31 87.8 14 1.2 34.1
18:00 1018 30.06 847 25.01 30.9 87.7 15 1.9 35.4
18:05 1018 30.06 847 25.01 31 87.7 15 1.6 34.9
18:10 1018 30.06 847 25.01 30.9 87.6 15 1.8 35.3
18:15 1018 30.06 847 25.01 30.9 87.7 15 1.2 34.2
18:20 1018 30.06 847 25.01 30.7 87.2 15 1.8 35.3
18:25 1018 30.06 848 25.04 30.6 87 14 0.1 32.2
18:30 1019 30.09 848 25.04 30.8 87.5 14 1 33.7
18:35 1018 30.06 847 25.01 30.3 86.5 14 0 32
18:40 1018 30.06 847 25.01 31.2 88.2 12 -1.4 29.5
18:45 1018 30.06 847 25.01 31.6 88.9 13 -0.2 31.6
18:50 1018 30.06 847 25.01 31.5 88.7 13 0 32
18:55 1018 30.06 847 25.01 31.5 88.6 13 0.6 33.1
19:00 1018 30.06 848 25.04 31.3 88.4 14 1.1 33.9
19:05 1018 30.06 848 25.04 31.1 88 15 2.1 35.8
19:10 1018 30.06 847 25.01 31 87.9 15 1.6 34.9
19:15 1018 30.06 847 25.01 30.7 87.2 17 3 37.4
19:20 1018 30.06 847 25.01 30.2 86.4 18 3.3 37.9
19:25 1018 30.06 847 25.01 29.9 85.9 18 3.3 38
19:30 1018 30.06 847 25.01 29.7 85.5 17 2.7 36.9
19:35 1018 30.06 847 25.01 29.6 85.2 19 3.5 38.4
19:40 1018 30.06 847 25.01 29.5 85 18 3 37.4
19:45 1018 30.06 847 25.01 29.4 84.8 21 5.4 41.8
19:50 1018 30.06 847 25.01 29.1 84.4 19 3.8 38.8
19:55 1018 30.06 848 25.04 29.2 84.6 24 6.8 44.2
20:00 1018 30.06 848 25.04 29.2 84.5 20 4.5 40
20:05 1019 30.09 848 25.04 29.2 84.6 22 5.9 42.6
20:10 1018 30.06 848 25.04 29.2 84.5 18 3.1 37.6
20:15 1018 30.06 848 25.04 29.3 84.8 19 3.5 38.3
20:20 1018 30.06 848 25.04 29 84.2 21 4.5 40.1
20:25 1018 30.06 847 25.01 28.9 84 20 3.8 38.8
20:30 1018 30.06 847 25.01 28.9 84.1 18 2.4 36.3
20:35 1018 30.06 847 25.01 29.3 84.8 15 0.4 32.7
20:40 1018 30.06 847 25.01 29.8 85.6 15 0.9 33.6
20:45 1018 30.06 847 25.01 29.8 85.6 15 0.6 33.1
20:50 1018 30.06 847 25.01 29.7 85.4 16 1.6 34.8
20:55 1018 30.06 847 25.01 28.9 84.1 21 4.7 40.4
21:00 1018 30.06 847 25.01 27.9 82.2 21 4 39.2
21:05 1018 30.06 847 25.01 27.7 81.9 20 3 37.4
21:10 1018 30.06 847 25.01 28 82.3 21 4.2 39.6
21:15 1018 30.06 847 25.01 27.9 82.3 20 3.5 38.4
21:20 1018 30.06 848 25.04 27.5 81.6 22 4.1 39.3
21:25 1019 30.09 848 25.04 27 80.6 24 4.9 40.9
21:30 1019 30.09 848 25.04 26.8 80.2 19 1.7 35.1
21:35 1019 30.09 848 25.04 27.4 81.3 23 4.5 40.1
21:40 1019 30.09 848 25.04 26.9 80.3 24 4.9 40.8
21:45 1019 30.09 848 25.04 26.6 79.9 23 3.9 39.1
21:50 1019 30.09 848 25.04 26.7 80 22 3.4 38.1
21:55 1019 30.09 848 25.04 26.9 80.5 22 3.6 38.4
22:00 1019 30.09 849 25.07 27 80.6 22 3.5 38.3
22:05 1019 30.09 849 25.07 26.9 80.4 21 3.2 37.7
22:10 1019 30.09 849 25.07 27.1 80.8 23 4.4 39.9
22:15 1020 30.12 849 25.07 26.7 80.1 27 6.4 43.4
22:20 1019 30.09 849 25.07 26.3 79.4 25 5 41.1
22:25 1020 30.12 849 25.07 25.2 77.3 28 5.8 42.4
22:30 1020 30.12 849 25.07 24.5 76 29 5.7 42.2
22:35 1020 30.12 849 25.07 24.2 75.6 29 5.5 41.8
22:40 1020 30.12 849 25.07 24.1 75.4 30 5.6 42.1
22:45 1020 30.12 849 25.07 24.1 75.4 27 4.3 39.8
22:50 1020 30.12 849 25.07 25.2 77.4 23 3.1 37.6
22:55 1020 30.12 849 25.07 26 78.8 24 4 39.3
23:00 1020 30.12 849 25.07 25.2 77.4 27 5.1 41.3
23:05 1020 30.12 849 25.07 24.2 75.6 30 5.8 42.4
23:10 1020 30.12 849 25.07 23 73.4 34 6.4 43.6
23:15 1020 30.12 849 25.07 22.3 72.2 32 4.9 40.8
23:20 1020 30.12 849 25.07 22.8 73 33 6 42.9
23:25 1020 30.12 849 25.07 22.3 72.1 36 6.6 43.8
23:30 1020 30.12 849 25.07 22 71.6 35 5.8 42.5
23:35 1020 30.12 849 25.07 22.3 72.1 34 5.9 42.5
23:40 1020 30.12 849 25.07 22.4 72.4 36 6.7 44
23:45 1020 30.12 849 25.07 21.8 71.2 36 6.4 43.5
23:50 1020 30.12 849 25.07 21 69.7 39 6.7 44
23:55 1020 30.12 850 25.1 21.6 70.8 34 5.1 41.3
24:00 1020 30.12 850 25.1 21.9 71.5 35 5.9 42.6